createdAt,value
2023-02-24T00:02:01.296Z,7.67
2023-02-24T00:04:31.116Z,10.37
2023-02-24T00:06:59.865Z,10.27
2023-02-24T00:09:28.623Z,10.87
2023-02-24T00:12:04.423Z,6.23
2023-02-24T00:14:34.232Z,9.90
2023-02-24T00:17:01.405Z,11.23
2023-02-24T00:19:32.716Z,9.37
2023-02-24T00:22:01.446Z,7.60
2023-02-24T00:24:28.699Z,11.23
2023-02-24T00:26:59.436Z,9.37
2023-02-24T00:29:28.839Z,11.97
2023-02-24T00:32:00.153Z,11.47
2023-02-24T00:34:31.495Z,15.70
2023-02-24T00:36:58.819Z,12.00
2023-02-24T00:39:33.554Z,13.03
2023-02-24T00:42:05.102Z,8.60
2023-02-24T00:44:38.010Z,9.20
2023-02-24T00:47:07.075Z,7.40
2023-02-24T00:49:35.988Z,9.30
2023-02-24T00:52:04.750Z,7.50
2023-02-24T00:54:32.372Z,7.07
2023-02-24T00:56:59.073Z,8.73
2023-02-24T00:59:26.178Z,7.37
2023-02-24T01:01:54.744Z,8.40
2023-02-24T01:04:23.366Z,8.50
2023-02-24T01:06:52.805Z,7.50
2023-02-24T01:09:21.289Z,8.00
2023-02-24T01:12:18.171Z,8.77
2023-02-24T01:14:49.474Z,8.67
2023-02-24T01:17:18.420Z,8.60
2023-02-24T01:19:47.354Z,7.97
2023-02-24T01:22:16.231Z,7.30
2023-02-24T01:24:44.588Z,7.43
2023-02-24T01:27:13.604Z,8.47
2023-02-24T01:29:40.637Z,8.23
2023-02-24T01:32:12.936Z,8.97
2023-02-24T01:34:42.521Z,10.47
2023-02-24T01:37:10.082Z,7.17
2023-02-24T01:39:37.268Z,6.23
2023-02-24T01:42:06.466Z,9.93
2023-02-24T01:44:33.325Z,9.57
2023-02-24T01:47:04.007Z,8.83
2023-02-24T01:49:41.188Z,7.57
2023-02-24T01:52:13.373Z,8.53
2023-02-24T01:55:14.099Z,8.20
2023-02-24T01:57:41.373Z,8.87
2023-02-24T02:00:11.555Z,8.30
2023-02-24T02:02:42.447Z,9.47
2023-02-24T02:05:10.125Z,8.03
2023-02-24T02:07:40.436Z,8.40
2023-02-24T02:10:09.159Z,10.33
2023-02-24T02:12:44.226Z,8.90
2023-02-24T02:15:14.342Z,9.90
2023-02-24T02:18:27.151Z,8.27
2023-02-24T02:20:56.876Z,7.47
2023-02-24T02:23:58.231Z,9.37
2023-02-24T02:26:28.095Z,8.90
2023-02-24T02:29:04.576Z,7.23
2023-02-24T02:31:50.992Z,7.90
2023-02-24T02:34:56.179Z,8.73
2023-02-24T02:37:37.402Z,12.70
2023-02-24T02:40:21.205Z,8.77
2023-02-24T02:43:01.992Z,7.90
2023-02-24T02:45:40.578Z,9.67
2023-02-24T02:48:15.431Z,8.87
2023-02-24T02:50:57.339Z,13.30
2023-02-24T02:53:26.649Z,17.73
2023-02-24T02:56:00.246Z,11.63
2023-02-24T02:58:36.239Z,10.23
2023-02-24T03:01:07.186Z,9.13
2023-02-24T03:03:42.668Z,13.33
2023-02-24T03:06:17.479Z,11.67
2023-02-24T03:09:01.903Z,11.17
2023-02-24T03:11:30.974Z,14.33
2023-02-24T03:13:58.523Z,17.50
2023-02-24T03:16:26.704Z,15.57
2023-02-24T03:19:03.889Z,18.17
2023-02-24T03:21:36.891Z,18.77
2023-02-24T03:24:06.464Z,27.00
2023-02-24T03:26:56.909Z,27.97
2023-02-24T03:29:26.904Z,23.43
2023-02-24T03:32:04.843Z,29.87
2023-02-24T03:34:48.542Z,34.57
2023-02-24T03:37:15.478Z,26.70
2023-02-24T03:39:42.787Z,24.77
2023-02-24T03:42:18.970Z,24.03
2023-02-24T03:44:46.217Z,25.23
2023-02-24T03:47:17.692Z,22.77
2023-02-24T03:49:45.232Z,23.37
2023-02-24T03:52:36.338Z,21.23
2023-02-24T03:55:17.957Z,22.87
2023-02-24T03:58:12.841Z,21.63
2023-02-24T04:01:00.500Z,20.63
2023-02-24T04:03:46.426Z,20.57
2023-02-24T04:06:21.597Z,25.57
2023-02-24T04:09:01.407Z,24.13
2023-02-24T04:11:39.780Z,20.60
2023-02-24T04:14:12.193Z,23.10
2023-02-24T04:16:44.455Z,24.83
2023-02-24T04:19:15.880Z,24.97
2023-02-24T04:21:44.492Z,22.17
2023-02-24T04:24:15.854Z,23.87
2023-02-24T04:26:45.460Z,22.57
2023-02-24T04:29:17.601Z,24.50
2023-02-24T04:31:51.424Z,22.57
2023-02-24T04:34:20.356Z,22.33
2023-02-24T04:36:49.689Z,24.50
2023-02-24T04:39:19.150Z,19.70
2023-02-24T04:41:49.428Z,18.40
2023-02-24T04:44:17.831Z,20.63
2023-02-24T04:46:49.950Z,22.53
2023-02-24T04:49:18.087Z,20.57
2023-02-24T04:51:45.783Z,21.70
2023-02-24T04:54:17.496Z,22.13
2023-02-24T04:56:50.744Z,21.20
2023-02-24T04:59:19.697Z,24.33
2023-02-24T05:01:46.914Z,25.40
2023-02-24T05:04:14.685Z,22.37
2023-02-24T05:06:44.013Z,23.07
2023-02-24T05:09:17.006Z,24.70
2023-02-24T05:11:51.743Z,23.13
2023-02-24T05:14:24.957Z,20.40
2023-02-24T05:16:51.817Z,23.83
2023-02-24T05:19:38.876Z,20.93
2023-02-24T05:22:07.256Z,21.17
2023-02-24T05:24:35.496Z,22.27
2023-02-24T05:27:04.513Z,23.93
2023-02-24T05:29:34.238Z,28.43
2023-02-24T05:32:04.650Z,27.97
2023-02-24T05:34:33.748Z,24.30
2023-02-24T05:37:07.546Z,27.00
2023-02-24T05:39:35.196Z,27.93
2023-02-24T05:42:06.553Z,31.80
2023-02-24T05:44:35.503Z,30.20
2023-02-24T05:47:02.753Z,28.93
2023-02-24T05:49:34.027Z,33.47
2023-02-24T05:52:07.687Z,30.67
2023-02-24T05:54:40.417Z,32.40
2023-02-24T05:57:12.091Z,31.03
2023-02-24T05:59:42.521Z,31.80
2023-02-24T06:02:13.031Z,33.53
2023-02-24T06:04:53.970Z,33.30
2023-02-24T06:07:25.359Z,33.17
2023-02-24T06:09:57.425Z,35.97
2023-02-24T06:12:28.077Z,37.47
2023-02-24T06:14:55.464Z,33.33
2023-02-24T06:17:23.044Z,33.17
2023-02-24T06:19:51.944Z,32.37
2023-02-24T06:22:21.080Z,35.73
2023-02-24T06:24:49.555Z,32.70
2023-02-24T06:27:21.641Z,33.63
2023-02-24T06:29:51.174Z,34.43
2023-02-24T06:32:19.499Z,39.33
2023-02-24T06:34:46.606Z,34.70
2023-02-24T06:37:14.878Z,35.13
2023-02-24T06:39:42.007Z,36.37
2023-02-24T06:42:10.811Z,35.40
2023-02-24T06:44:39.135Z,33.77
2023-02-24T06:47:08.630Z,36.20
2023-02-24T06:49:35.447Z,38.00
2023-02-24T06:52:03.256Z,35.47
2023-02-24T06:54:30.613Z,36.40
2023-02-24T06:56:59.209Z,36.63
2023-02-24T06:59:29.709Z,43.07
2023-02-24T07:01:58.123Z,38.00
2023-02-24T07:04:28.242Z,35.37
2023-02-24T07:06:58.473Z,43.20
2023-02-24T07:09:26.726Z,35.03
2023-02-24T07:11:56.103Z,39.67
2023-02-24T07:14:25.590Z,35.97
2023-02-24T07:16:55.029Z,43.17
2023-02-24T07:19:29.149Z,39.03
2023-02-24T07:22:02.264Z,40.60
2023-02-24T07:24:36.806Z,43.67
2023-02-24T07:27:07.529Z,41.90
2023-02-24T07:29:35.554Z,44.47
2023-02-24T07:32:05.893Z,41.73
2023-02-24T07:34:33.988Z,39.30
2023-02-24T07:37:07.983Z,43.90
2023-02-24T07:39:39.661Z,44.10
2023-02-24T07:42:08.891Z,43.60
2023-02-24T07:44:35.691Z,43.40
2023-02-24T07:47:08.098Z,44.93
2023-02-24T07:49:35.679Z,43.23
2023-02-24T07:52:02.785Z,46.70
2023-02-24T07:54:30.635Z,49.43
2023-02-24T07:56:59.661Z,52.27
2023-02-24T07:59:29.174Z,48.80
2023-02-24T08:01:57.688Z,44.20
2023-02-24T08:04:29.010Z,42.60
2023-02-24T08:06:56.615Z,44.20
2023-02-24T08:09:48.540Z,46.67
2023-02-24T08:12:22.230Z,51.63
2023-02-24T08:14:53.504Z,40.83
2023-02-24T08:17:23.069Z,41.67
2023-02-24T08:20:12.337Z,44.57
2023-02-24T08:22:43.894Z,47.07
2023-02-24T08:25:18.610Z,41.70
2023-02-24T08:28:06.728Z,43.40
2023-02-24T08:30:39.266Z,48.07
2023-02-24T08:33:09.114Z,49.87
2023-02-24T08:35:38.376Z,55.80
2023-02-24T08:38:17.631Z,52.47
2023-02-24T08:40:51.767Z,50.07
2023-02-24T08:43:30.265Z,51.90
2023-02-24T08:46:03.796Z,53.00
2023-02-24T08:48:37.935Z,53.43
2023-02-24T08:51:10.648Z,49.53
2023-02-24T08:53:40.653Z,49.67
2023-02-24T08:56:11.380Z,50.90
2023-02-24T08:58:57.032Z,56.50
2023-02-24T09:01:36.857Z,55.67
2023-02-24T09:04:11.047Z,53.70
2023-02-24T09:06:53.796Z,55.70
2023-02-24T09:09:22.760Z,53.87
2023-02-24T09:11:58.198Z,59.03
2023-02-24T09:14:36.421Z,53.67
2023-02-24T09:17:06.873Z,50.30
2023-02-24T09:19:46.872Z,49.13
2023-02-24T09:22:33.358Z,54.23
2023-02-24T09:25:18.943Z,49.63
2023-02-24T09:27:52.359Z,53.87
2023-02-24T09:30:36.980Z,52.23
2023-02-24T09:33:20.793Z,47.47
2023-02-24T09:35:50.482Z,54.60
2023-02-24T09:38:40.482Z,52.40
2023-02-24T09:41:30.129Z,55.03
2023-02-24T09:44:10.342Z,48.57
2023-02-24T09:46:53.961Z,49.00
2023-02-24T09:49:48.729Z,49.30
2023-02-24T09:52:18.927Z,48.97
2023-02-24T09:55:13.740Z,48.33
2023-02-24T09:58:19.992Z,47.23
2023-02-24T10:01:21.635Z,48.00
2023-02-24T10:03:51.939Z,44.80
2023-02-24T10:06:26.779Z,45.00
2023-02-24T10:09:11.807Z,45.83
2023-02-24T10:11:55.887Z,44.93
2023-02-24T10:14:43.661Z,39.40
2023-02-24T10:17:40.391Z,47.40
2023-02-24T10:20:31.230Z,44.53
2023-02-24T10:23:29.715Z,40.33
2023-02-24T10:26:07.450Z,45.10
2023-02-24T10:28:58.581Z,41.90
2023-02-24T10:31:35.799Z,40.50
2023-02-24T10:34:08.690Z,38.67
2023-02-24T10:36:36.271Z,42.20
2023-02-24T10:39:25.402Z,42.73
2023-02-24T10:41:58.079Z,48.03
2023-02-24T10:44:36.589Z,43.63
2023-02-24T10:47:13.379Z,44.73
2023-02-24T10:49:57.449Z,40.57
2023-02-24T10:53:10.902Z,39.73
2023-02-24T10:55:45.263Z,40.80
2023-02-24T10:58:37.829Z,45.43
2023-02-24T11:01:20.838Z,36.03
2023-02-24T11:04:01.505Z,44.80
2023-02-24T11:06:41.764Z,39.33
2023-02-24T11:09:29.613Z,49.70
2023-02-24T11:12:29.918Z,40.47
2023-02-24T11:15:18.906Z,42.33
2023-02-24T11:18:06.944Z,40.73
2023-02-24T11:20:49.097Z,45.77
2023-02-24T11:23:24.570Z,38.50
2023-02-24T11:26:04.725Z,45.77
2023-02-24T11:28:59.224Z,38.27
2023-02-24T11:31:44.722Z,39.03
2023-02-24T11:34:25.102Z,38.10
2023-02-24T11:37:15.498Z,30.50
2023-02-24T11:39:59.043Z,34.10
2023-02-24T11:42:46.529Z,31.93
2023-02-24T11:45:35.108Z,36.27
2023-02-24T11:48:32.433Z,34.93
2023-02-24T11:51:12.209Z,38.37
2023-02-24T11:53:49.453Z,34.27
2023-02-24T11:56:30.222Z,35.73
2023-02-24T11:59:28.902Z,34.07
2023-02-24T12:02:34.086Z,31.77
2023-02-24T12:05:13.395Z,33.27
2023-02-24T12:07:44.216Z,33.23
2023-02-24T12:10:16.999Z,34.23
2023-02-24T12:12:49.920Z,29.90
2023-02-24T12:15:29.858Z,37.40
2023-02-24T12:18:25.347Z,37.17
2023-02-24T12:21:00.911Z,39.27
2023-02-24T12:23:35.457Z,32.37
2023-02-24T12:26:16.395Z,28.70
2023-02-24T12:28:50.146Z,30.50
2023-02-24T12:31:41.812Z,28.80
2023-02-24T12:34:34.474Z,31.70
2023-02-24T12:37:07.745Z,32.53
2023-02-24T12:39:46.305Z,31.23
2023-02-24T12:42:34.901Z,28.77
2023-02-24T12:45:23.348Z,28.70
2023-02-24T12:47:53.123Z,33.03
2023-02-24T12:50:28.616Z,29.27
2023-02-24T12:53:12.445Z,34.70
2023-02-24T12:55:48.028Z,28.37
2023-02-24T12:58:23.722Z,32.40
2023-02-24T13:01:15.148Z,30.97
2023-02-24T13:04:01.467Z,30.40
2023-02-24T13:06:40.595Z,29.23
2023-02-24T13:09:32.470Z,26.73
2023-02-24T13:12:15.592Z,31.40
2023-02-24T13:14:43.455Z,27.03
2023-02-24T13:17:10.214Z,29.73
2023-02-24T13:19:41.500Z,31.17
2023-02-24T13:22:21.810Z,31.37
2023-02-24T13:24:54.242Z,27.43
2023-02-24T13:27:24.023Z,31.20
2023-02-24T13:29:59.151Z,30.30
2023-02-24T13:32:36.503Z,26.13
2023-02-24T13:35:26.614Z,28.43
2023-02-24T13:37:54.531Z,24.57
2023-02-24T13:40:22.435Z,23.97
2023-02-24T13:43:01.138Z,23.20
2023-02-24T13:45:35.345Z,19.70
2023-02-24T13:48:37.573Z,21.80
2023-02-24T13:51:29.215Z,28.23
2023-02-24T13:54:09.597Z,21.87
2023-02-24T13:57:11.644Z,22.23
2023-02-24T14:00:01.597Z,21.73
2023-02-24T14:02:30.947Z,27.20
2023-02-24T14:05:00.640Z,21.63
2023-02-24T14:07:37.508Z,22.87
2023-02-24T14:10:20.344Z,26.50
2023-02-24T14:12:49.735Z,23.53
2023-02-24T14:15:21.769Z,22.70
2023-02-24T14:17:59.698Z,25.47
2023-02-24T14:20:27.812Z,30.80
2023-02-24T14:22:58.811Z,29.87
2023-02-24T14:25:29.681Z,27.83
2023-02-24T14:27:57.850Z,30.17
2023-02-24T14:30:32.031Z,34.77
2023-02-24T14:33:00.135Z,26.00
2023-02-24T14:35:46.516Z,26.10
2023-02-24T14:38:40.400Z,24.07
2023-02-24T14:41:30.261Z,25.97
2023-02-24T14:43:57.192Z,29.90
2023-02-24T14:46:24.700Z,25.50
2023-02-24T14:48:56.330Z,31.67
2023-02-24T14:51:34.925Z,26.10
2023-02-24T14:54:06.047Z,30.13
2023-02-24T14:56:34.115Z,24.63
2023-02-24T14:59:07.786Z,30.03
2023-02-24T15:01:39.670Z,34.03
2023-02-24T15:04:19.985Z,28.27
2023-02-24T15:06:49.127Z,26.47
2023-02-24T15:09:25.291Z,28.17
2023-02-24T15:11:53.319Z,38.47
2023-02-24T15:14:24.346Z,29.07
2023-02-24T15:16:55.129Z,27.23
2023-02-24T15:19:38.942Z,33.40
2023-02-24T15:22:17.730Z,30.53
2023-02-24T15:24:44.799Z,32.27
2023-02-24T15:27:14.541Z,30.07
2023-02-24T15:29:44.212Z,34.87
2023-02-24T15:32:21.545Z,27.27
2023-02-24T15:34:48.464Z,25.27
2023-02-24T15:37:22.629Z,36.97
2023-02-24T15:39:51.641Z,30.80
2023-02-24T15:42:32.134Z,32.43
2023-02-24T15:45:00.411Z,31.77
2023-02-24T15:47:28.920Z,35.67
2023-02-24T15:49:55.849Z,33.07
2023-02-24T15:52:27.050Z,33.87
2023-02-24T15:55:00.809Z,32.13
2023-02-24T15:57:30.158Z,35.67
2023-02-24T15:59:56.952Z,34.50
2023-02-24T16:02:25.395Z,29.70
2023-02-24T16:04:52.551Z,36.30
2023-02-24T16:07:20.851Z,30.03
2023-02-24T16:09:49.476Z,36.13
2023-02-24T16:12:24.004Z,42.23
2023-02-24T16:14:55.998Z,27.67
2023-02-24T16:17:38.736Z,30.10
2023-02-24T16:20:17.776Z,31.63
2023-02-24T16:22:44.650Z,30.27
2023-02-24T16:25:16.230Z,34.90
2023-02-24T16:27:43.361Z,35.57
2023-02-24T16:30:17.681Z,29.83
2023-02-24T16:32:45.886Z,31.67
2023-02-24T16:35:14.380Z,32.40
2023-02-24T16:37:41.313Z,28.70
2023-02-24T16:40:17.298Z,39.77
2023-02-24T16:42:44.364Z,31.57
2023-02-24T16:45:11.517Z,30.20
2023-02-24T16:47:38.934Z,34.03
2023-02-24T16:50:09.338Z,34.90
2023-02-24T16:52:36.115Z,31.13
2023-02-24T16:55:02.877Z,33.23
2023-02-24T16:57:29.686Z,34.77
2023-02-24T16:59:56.444Z,35.50
2023-02-24T17:02:25.320Z,37.10
2023-02-24T17:04:52.200Z,37.30
2023-02-24T17:07:20.904Z,39.20
2023-02-24T17:09:47.764Z,37.93
2023-02-24T17:12:17.207Z,32.73
2023-02-24T17:14:43.916Z,36.70
2023-02-24T17:17:11.726Z,34.63
2023-02-24T17:19:39.264Z,38.00
2023-02-24T17:22:06.100Z,31.43
2023-02-24T17:24:33.002Z,31.23
2023-02-24T17:27:00.548Z,30.87
2023-02-24T17:29:27.639Z,34.73
2023-02-24T17:31:54.631Z,32.70
2023-02-24T17:34:23.983Z,31.37
2023-02-24T17:36:50.953Z,39.43
2023-02-24T17:39:17.743Z,30.50
2023-02-24T17:41:44.661Z,34.17
2023-02-24T17:44:11.555Z,32.03
2023-02-24T17:46:38.399Z,27.57
2023-02-24T17:49:05.413Z,32.07
2023-02-24T17:51:32.431Z,29.03
2023-02-24T17:53:59.259Z,31.40
2023-02-24T17:56:26.271Z,32.23
2023-02-24T17:58:58.618Z,33.63
2023-02-24T18:01:26.824Z,35.63
2023-02-24T18:03:55.705Z,27.50
2023-02-24T18:06:22.725Z,31.73
2023-02-24T18:08:49.617Z,23.63
2023-02-24T18:11:18.037Z,23.47
2023-02-24T18:13:45.381Z,29.50
2023-02-24T18:16:15.086Z,27.90
2023-02-24T18:18:42.157Z,27.03
2023-02-24T18:21:09.030Z,30.90
2023-02-24T18:23:40.120Z,28.20
2023-02-24T18:26:08.284Z,24.80
2023-02-24T18:28:35.551Z,24.90
2023-02-24T18:31:10.717Z,22.57
2023-02-24T18:33:37.706Z,27.87
2023-02-24T18:36:04.840Z,18.63
2023-02-24T18:38:33.972Z,22.47
2023-02-24T18:41:06.508Z,21.43
2023-02-24T18:43:35.463Z,17.97
2023-02-24T18:46:07.655Z,20.17
2023-02-24T18:48:37.217Z,17.77
2023-02-24T18:51:04.207Z,15.67
2023-02-24T18:53:36.184Z,16.17
2023-02-24T18:56:05.442Z,19.23
2023-02-24T18:58:32.669Z,20.70
2023-02-24T19:00:59.949Z,19.43
2023-02-24T19:03:26.952Z,17.33
2023-02-24T19:05:53.750Z,15.97
2023-02-24T19:08:20.683Z,17.37
2023-02-24T19:10:47.499Z,14.17
2023-02-24T19:13:14.931Z,20.17
2023-02-24T19:15:43.322Z,14.13
2023-02-24T19:18:10.134Z,15.37
2023-02-24T19:20:43.698Z,15.47
2023-02-24T19:23:11.111Z,11.73
2023-02-24T19:25:37.828Z,14.77
2023-02-24T19:28:04.818Z,10.73
2023-02-24T19:30:31.983Z,14.77
2023-02-24T19:32:58.931Z,15.47
2023-02-24T19:35:26.312Z,16.67
2023-02-24T19:37:53.158Z,13.43
2023-02-24T19:40:20.784Z,15.53
2023-02-24T19:42:49.449Z,17.23
2023-02-24T19:45:17.321Z,14.73
2023-02-24T19:47:46.929Z,15.80
2023-02-24T19:50:15.330Z,16.73
2023-02-24T19:52:42.952Z,15.90
2023-02-24T19:55:11.710Z,17.27
2023-02-24T19:57:38.801Z,14.83
2023-02-24T20:00:07.239Z,13.40
2023-02-24T20:02:33.973Z,19.40
2023-02-24T20:05:01.536Z,18.93
2023-02-24T20:07:28.352Z,19.33
2023-02-24T20:09:55.522Z,17.17
2023-02-24T20:12:22.458Z,17.93
2023-02-24T20:14:50.472Z,17.97
2023-02-24T20:17:17.685Z,19.80
2023-02-24T20:19:44.622Z,18.77
2023-02-24T20:22:11.418Z,21.47
2023-02-24T20:24:38.560Z,17.03
2023-02-24T20:27:05.536Z,21.53
2023-02-24T20:29:33.577Z,20.40
2023-02-24T20:32:01.386Z,22.40
2023-02-24T20:34:28.223Z,17.83
2023-02-24T20:36:55.340Z,21.33
2023-02-24T20:39:24.887Z,17.90
2023-02-24T20:41:53.695Z,23.57
2023-02-24T20:44:20.802Z,19.33
2023-02-24T20:46:47.775Z,20.87
2023-02-24T20:49:17.628Z,16.83
2023-02-24T20:51:44.685Z,20.83
2023-02-24T20:54:13.336Z,17.73
2023-02-24T20:56:42.754Z,20.63
2023-02-24T20:59:13.929Z,21.27
2023-02-24T21:01:40.920Z,24.00
2023-02-24T21:04:08.906Z,18.97
2023-02-24T21:06:37.289Z,21.53
2023-02-24T21:09:04.405Z,21.13
2023-02-24T21:11:31.975Z,17.93
2023-02-24T21:13:59.480Z,22.77
2023-02-24T21:16:27.287Z,26.10
2023-02-24T21:18:55.799Z,15.60
2023-02-24T21:21:22.796Z,15.13
2023-02-24T21:23:50.466Z,16.37
2023-02-24T21:26:17.901Z,15.50
2023-02-24T21:28:44.948Z,14.07
2023-02-24T21:31:14.539Z,14.27
2023-02-24T21:33:41.669Z,12.57
2023-02-24T21:36:13.596Z,9.60
2023-02-24T21:38:41.333Z,11.10
2023-02-24T21:41:10.257Z,10.43
2023-02-24T21:43:37.907Z,9.23
2023-02-24T21:46:06.731Z,9.83
2023-02-24T21:48:33.908Z,7.43
2023-02-24T21:51:03.956Z,4.23
2023-02-24T21:53:35.865Z,3.30
2023-02-24T21:56:11.152Z,2.60
2023-02-24T21:58:39.444Z,2.70
2023-02-24T22:01:14.196Z,2.60
2023-02-24T22:03:41.075Z,3.90
2023-02-24T22:06:10.890Z,4.47
2023-02-24T22:08:43.042Z,3.03
2023-02-24T22:11:12.487Z,2.17
2023-02-24T22:13:40.793Z,2.33
2023-02-24T22:16:09.494Z,2.77
2023-02-24T22:18:36.578Z,2.13
2023-02-24T22:21:17.267Z,2.07
2023-02-24T22:23:48.797Z,1.87
2023-02-24T22:26:16.848Z,2.90
2023-02-24T22:28:45.138Z,1.97
2023-02-24T22:31:14.183Z,1.90
2023-02-24T22:33:43.048Z,3.10
2023-02-24T22:36:21.740Z,3.47
2023-02-24T22:38:48.854Z,2.77
2023-02-24T22:41:20.943Z,2.57
2023-02-24T22:43:48.263Z,2.50
2023-02-24T22:46:22.301Z,2.43
2023-02-24T22:48:50.410Z,2.40
2023-02-24T22:51:18.438Z,2.40
2023-02-24T22:53:49.006Z,3.47
2023-02-24T22:56:19.756Z,2.60
2023-02-24T22:58:46.874Z,3.53
2023-02-24T23:01:23.887Z,3.00
2023-02-24T23:03:51.104Z,2.97
2023-02-24T23:06:21.601Z,2.00
2023-02-24T23:08:50.011Z,2.27
2023-02-24T23:11:24.920Z,2.33
2023-02-24T23:13:52.409Z,1.93
2023-02-24T23:16:22.347Z,2.57
2023-02-24T23:18:50.891Z,2.83
2023-02-24T23:21:26.459Z,4.07
2023-02-24T23:23:56.829Z,3.80
2023-02-24T23:26:45.545Z,2.30
2023-02-24T23:29:15.409Z,6.03
2023-02-24T23:31:42.509Z,2.70
2023-02-24T23:34:10.166Z,2.67
2023-02-24T23:36:39.661Z,4.20
2023-02-24T23:39:07.956Z,3.60
2023-02-24T23:41:36.026Z,5.50
2023-02-24T23:44:04.204Z,3.70
2023-02-24T23:46:33.211Z,7.27
2023-02-24T23:49:00.373Z,4.97
2023-02-24T23:51:35.798Z,3.80
2023-02-24T23:54:11.056Z,4.53
2023-02-24T23:56:37.783Z,5.00
2023-02-24T23:59:04.486Z,4.67
